Time,TemperatureF,DewpointF,PressureIn,WindDirection,WindDirectionDegrees,WindSpeedMPH,WindSpeedGustMPH,Humidity,HourlyPrecipIn,Conditions,Clouds,dailyrainin,SoftwareType,DateUTC
2013-06-30 00:01:00,66.0,61.7,29.81,SE,136,0.0,0.0,86,0.00,,SKC,0.00,VWS V13.01,2013-06-30 04:01:00,
2013-06-30 00:02:00,66.0,61.7,29.81,SE,136,0.0,0.0,86,0.00,,SKC,0.00,VWS V13.01,2013-06-30 04:02:00,
2013-06-30 00:07:00,66.0,61.7,29.81,SE,136,0.0,0.0,86,0.00,,SKC,0.00,VWS V13.01,2013-06-30 04:07:00,
2013-06-30 00:12:00,66.0,62.0,29.81,SE,136,0.0,0.0,87,0.00,,SKC,0.00,VWS V13.01,2013-06-30 04:12:00,
2013-06-30 00:17:00,66.0,62.0,29.81,SE,136,0.0,0.0,87,0.00,,SKC,0.00,VWS V13.01,2013-06-30 04:17:00,
2013-06-30 00:22:00,66.0,62.0,29.82,SE,136,0.0,0.0,87,0.00,,SKC,0.00,VWS V13.01,2013-06-30 04:22:00,
2013-06-30 00:27:00,66.0,62.0,29.81,SE,136,0.0,0.0,87,0.00,,SKC,0.00,VWS V13.01,2013-06-30 04:27:00,
2013-06-30 00:32:00,66.0,62.0,29.81,SE,136,0.0,0.0,87,0.00,,SKC,0.00,VWS V13.01,2013-06-30 04:32:00,
2013-06-30 00:37:00,66.0,62.0,29.82,SE,136,0.0,0.0,87,0.00,,SKC,0.00,VWS V13.01,2013-06-30 04:37:00,
2013-06-30 00:42:00,66.0,62.0,29.82,SE,136,0.0,0.0,87,0.00,,SKC,0.00,VWS V13.01,2013-06-30 04:42:00,
2013-06-30 00:47:00,65.8,61.8,29.82,SE,136,0.0,0.0,87,0.00,,SKC,0.00,VWS V13.01,2013-06-30 04:47:00,
2013-06-30 00:52:00,65.8,61.8,29.82,SE,136,0.0,0.0,87,0.00,,SKC,0.00,VWS V13.01,2013-06-30 04:52:00,
2013-06-30 00:57:00,65.6,61.6,29.82,SE,136,0.0,0.0,87,0.00,,SKC,0.00,VWS V13.01,2013-06-30 04:57:00,
2013-06-30 01:02:00,65.4,61.4,29.82,SE,136,0.0,0.0,87,0.00,,SKC,0.00,VWS V13.01,2013-06-30 05:02:00,
2013-06-30 01:07:00,65.3,61.3,29.82,SE,136,0.0,0.0,87,0.00,,SKC,0.00,VWS V13.01,2013-06-30 05:07:00,
2013-06-30 01:12:00,65.3,61.3,29.82,SE,136,0.0,0.0,87,0.00,,SKC,0.00,VWS V13.01,2013-06-30 05:12:00,
2013-06-30 01:17:00,65.3,61.3,29.82,SE,136,0.0,0.0,87,0.00,,SKC,0.00,VWS V13.01,2013-06-30 05:17:00,
2013-06-30 01:22:00,65.1,61.1,29.83,SE,136,0.0,0.0,87,0.00,,SKC,0.00,VWS V13.01,2013-06-30 05:22:00,
2013-06-30 01:27:00,65.1,61.1,29.83,SE,136,0.0,0.0,87,0.00,,SKC,0.00,VWS V13.01,2013-06-30 05:27:00,
2013-06-30 01:32:00,65.1,61.1,29.83,SE,136,0.0,0.0,87,0.00,,SKC,0.00,VWS V13.01,2013-06-30 05:32:00,
2013-06-30 01:37:00,65.1,61.1,29.83,SE,136,0.0,0.0,87,0.00,,SKC,0.00,VWS V13.01,2013-06-30 05:37:00,
2013-06-30 01:42:00,65.1,61.1,29.83,SE,136,0.0,0.0,87,0.00,,SKC,0.00,VWS V13.01,2013-06-30 05:42:00,
2013-06-30 01:47:00,65.1,61.5,29.83,SE,136,0.0,0.0,88,0.00,,SKC,0.00,VWS V13.01,2013-06-30 05:47:00,
2013-06-30 01:52:00,65.1,61.5,29.84,SE,136,0.0,0.0,88,0.00,,SKC,0.00,VWS V13.01,2013-06-30 05:52:00,
2013-06-30 01:57:00,65.1,61.5,29.84,SE,136,0.0,0.0,88,0.00,,SKC,0.00,VWS V13.01,2013-06-30 05:57:00,
2013-06-30 02:02:00,65.1,61.5,29.84,SE,136,0.0,0.0,88,0.00,,SKC,0.00,VWS V13.01,2013-06-30 06:02:00,
2013-06-30 02:07:00,65.1,61.5,29.84,SE,136,0.0,0.0,88,0.00,,SKC,0.00,VWS V13.01,2013-06-30 06:07:00,
2013-06-30 02:12:00,65.1,61.5,29.84,SE,136,0.0,0.0,88,0.00,,SKC,0.00,VWS V13.01,2013-06-30 06:12:00,
2013-06-30 02:17:00,65.1,61.5,29.84,SE,136,0.0,0.0,88,0.00,,SKC,0.00,VWS V13.01,2013-06-30 06:17:00,
2013-06-30 02:22:00,64.9,61.3,29.84,SE,136,0.0,0.0,88,0.00,,SKC,0.00,VWS V13.01,2013-06-30 06:22:00,
2013-06-30 02:27:00,64.9,61.3,29.84,SE,136,0.0,0.0,88,0.00,,SKC,0.00,VWS V13.01,2013-06-30 06:27:00,
2013-06-30 02:32:00,64.9,61.3,29.83,SE,136,0.0,0.0,88,0.00,,SKC,0.00,VWS V13.01,2013-06-30 06:32:00,
2013-06-30 02:37:00,64.9,61.3,29.84,SE,136,0.0,0.0,88,0.00,,SKC,0.00,VWS V13.01,2013-06-30 06:37:00,
2013-06-30 02:42:00,64.7,61.1,29.84,SE,136,0.0,0.0,88,0.00,,SKC,0.00,VWS V13.01,2013-06-30 06:42:00,
2013-06-30 02:47:00,64.5,61.2,29.84,SE,136,0.0,0.0,89,0.00,,SKC,0.00,VWS V13.01,2013-06-30 06:47:00,
2013-06-30 02:52:00,64.5,61.2,29.84,SE,136,0.0,0.0,89,0.00,,SKC,0.00,VWS V13.01,2013-06-30 06:52:00,
2013-06-30 02:57:00,64.5,61.2,29.84,SE,136,0.0,0.0,89,0.00,,SKC,0.00,VWS V13.01,2013-06-30 06:57:00,
2013-06-30 03:02:00,64.5,61.2,29.85,SE,136,0.0,0.0,89,0.00,,SKC,0.00,VWS V13.01,2013-06-30 07:02:00,
2013-06-30 03:07:00,64.5,61.2,29.85,SE,136,0.0,0.0,89,0.00,,SKC,0.00,VWS V13.01,2013-06-30 07:07:00,
2013-06-30 03:12:00,64.5,61.2,29.85,SE,136,0.0,0.0,89,0.00,,SKC,0.00,VWS V13.01,2013-06-30 07:12:00,
2013-06-30 03:17:00,64.2,60.9,29.85,SE,136,0.0,0.0,89,0.00,,SKC,0.00,VWS V13.01,2013-06-30 07:17:00,
2013-06-30 03:22:00,64.2,60.9,29.85,SE,136,0.0,0.0,89,0.00,,SKC,0.00,VWS V13.01,2013-06-30 07:22:00,
2013-06-30 03:27:00,64.2,60.9,29.85,SE,136,0.0,0.0,89,0.00,,SKC,0.00,VWS V13.01,2013-06-30 07:27:00,
2013-06-30 03:32:00,64.2,60.9,29.85,SE,136,0.0,0.0,89,0.00,,SKC,0.00,VWS V13.01,2013-06-30 07:32:00,
2013-06-30 03:37:00,64.0,60.7,29.85,SE,136,0.0,0.0,89,0.00,,SKC,0.00,VWS V13.01,2013-06-30 07:37:00,
2013-06-30 03:42:00,63.6,60.3,29.85,SE,136,0.0,0.0,89,0.00,,SKC,0.00,VWS V13.01,2013-06-30 07:42:00,
2013-06-30 03:47:00,63.6,60.3,29.85,SE,136,0.0,0.0,89,0.00,,SKC,0.00,VWS V13.01,2013-06-30 07:47:00,
2013-06-30 03:52:00,63.6,60.3,29.85,SE,136,0.0,0.0,89,0.00,,SKC,0.00,VWS V13.01,2013-06-30 07:52:00,
2013-06-30 03:57:00,63.3,60.0,29.86,SE,136,0.0,0.0,89,0.00,,SKC,0.00,VWS V13.01,2013-06-30 07:57:00,
2013-06-30 04:02:00,63.3,60.0,29.86,SE,136,0.0,0.0,89,0.00,,SKC,0.00,VWS V13.01,2013-06-30 08:02:00,
2013-06-30 04:07:00,63.3,60.0,29.86,SE,136,0.0,0.0,89,0.00,,SKC,0.00,VWS V13.01,2013-06-30 08:07:00,
2013-06-30 04:12:00,63.3,60.0,29.86,SE,136,0.0,0.0,89,0.00,,SKC,0.00,VWS V13.01,2013-06-30 08:12:00,
2013-06-30 04:17:00,63.5,60.2,29.86,SE,136,0.0,0.0,89,0.00,,SKC,0.00,VWS V13.01,2013-06-30 08:17:00,
2013-06-30 04:22:00,63.6,60.3,29.87,SE,136,0.0,0.0,89,0.00,,SKC,0.00,VWS V13.01,2013-06-30 08:22:00,
2013-06-30 04:27:00,63.6,60.3,29.87,SE,136,0.0,0.0,89,0.00,,SKC,0.00,VWS V13.01,2013-06-30 08:27:00,
2013-06-30 04:32:00,63.8,60.5,29.87,SE,136,0.0,0.0,89,0.00,,SKC,0.00,VWS V13.01,2013-06-30 08:32:00,
2013-06-30 04:37:00,64.0,60.7,29.87,SE,136,0.0,0.0,89,0.00,,SKC,0.00,VWS V13.01,2013-06-30 08:37:00,
2013-06-30 04:42:00,64.0,61.0,29.87,SE,136,0.0,0.0,90,0.00,,SKC,0.00,VWS V13.01,2013-06-30 08:42:00,
2013-06-30 04:47:00,64.0,61.0,29.88,SE,136,0.0,0.0,90,0.00,,SKC,0.00,VWS V13.01,2013-06-30 08:47:00,
2013-06-30 04:52:00,64.0,61.0,29.88,SE,136,0.0,0.0,90,0.00,,SKC,0.00,VWS V13.01,2013-06-30 08:52:00,
2013-06-30 04:57:00,64.0,61.0,29.88,SE,136,0.0,0.0,90,0.00,,SKC,0.00,VWS V13.01,2013-06-30 08:57:00,
2013-06-30 05:02:00,64.2,61.2,29.88,SE,136,0.0,0.0,90,0.00,,SKC,0.00,VWS V13.01,2013-06-30 09:02:00,
2013-06-30 05:07:00,64.2,61.2,29.88,SE,136,0.0,0.0,90,0.00,,SKC,0.00,VWS V13.01,2013-06-30 09:07:00,
2013-06-30 05:12:00,64.2,61.2,29.88,SE,136,0.0,0.0,90,0.00,,SKC,0.00,VWS V13.01,2013-06-30 09:12:00,
2013-06-30 05:17:00,64.4,61.4,29.89,SE,136,0.0,0.0,90,0.00,,SKC,0.00,VWS V13.01,2013-06-30 09:17:00,
2013-06-30 05:22:00,64.5,61.5,29.89,SE,136,0.0,0.0,90,0.00,,SKC,0.00,VWS V13.01,2013-06-30 09:22:00,
2013-06-30 05:27:00,64.5,61.5,29.89,SE,136,0.0,0.0,90,0.00,,SKC,0.00,VWS V13.01,2013-06-30 09:27:00,
2013-06-30 05:32:00,64.7,61.7,29.90,SE,136,0.0,0.0,90,0.00,,SKC,0.00,VWS V13.01,2013-06-30 09:32:00,
2013-06-30 05:37:00,64.7,61.7,29.90,SE,136,0.0,0.0,90,0.00,,SKC,0.00,VWS V13.01,2013-06-30 09:37:00,
2013-06-30 05:42:00,64.7,61.7,29.89,SE,136,0.0,0.0,90,0.00,,SKC,0.00,VWS V13.01,2013-06-30 09:42:00,
2013-06-30 05:47:00,64.7,61.7,29.89,SE,136,0.0,0.0,90,0.00,,SKC,0.00,VWS V13.01,2013-06-30 09:47:00,
2013-06-30 05:52:00,64.7,61.7,29.89,SE,136,0.0,0.0,90,0.00,,SKC,0.00,VWS V13.01,2013-06-30 09:52:00,
2013-06-30 05:57:00,64.7,61.7,29.90,SE,136,0.0,0.0,90,0.00,,SKC,0.00,VWS V13.01,2013-06-30 09:57:00,
2013-06-30 06:02:00,64.9,61.9,29.90,SE,136,0.0,0.0,90,0.00,,SKC,0.00,VWS V13.01,2013-06-30 10:02:00,
2013-06-30 06:07:00,64.9,61.9,29.90,SE,136,0.0,0.0,90,0.00,,SKC,0.00,VWS V13.01,2013-06-30 10:07:00,
2013-06-30 06:12:00,65.1,62.1,29.90,SE,136,0.0,0.0,90,0.00,,SKC,0.00,VWS V13.01,2013-06-30 10:12:00,
2013-06-30 06:17:00,65.1,62.1,29.90,SE,136,0.0,0.0,90,0.00,,SKC,0.00,VWS V13.01,2013-06-30 10:17:00,
2013-06-30 06:22:00,65.3,62.3,29.90,SE,136,0.0,0.0,90,0.00,,SKC,0.00,VWS V13.01,2013-06-30 10:22:00,
2013-06-30 06:27:00,65.8,62.8,29.90,SE,136,0.0,0.0,90,0.00,,SKC,0.00,VWS V13.01,2013-06-30 10:27:00,
2013-06-30 06:32:00,66.0,63.0,29.91,SE,136,0.0,0.0,90,0.00,,SKC,0.00,VWS V13.01,2013-06-30 10:32:00,
2013-06-30 06:37:00,66.3,63.3,29.91,SE,136,0.0,0.0,90,0.00,,SKC,0.00,VWS V13.01,2013-06-30 10:37:00,
2013-06-30 06:42:00,66.5,63.5,29.91,SE,136,0.0,0.0,90,0.00,,SKC,0.00,VWS V13.01,2013-06-30 10:42:00,
2013-06-30 06:47:00,66.5,63.5,29.91,SE,136,0.0,0.0,90,0.00,,SKC,0.00,VWS V13.01,2013-06-30 10:47:00,
2013-06-30 06:52:00,66.7,63.7,29.91,SE,136,0.0,0.0,90,0.00,,SKC,0.00,VWS V13.01,2013-06-30 10:52:00,
2013-06-30 06:57:00,66.7,63.7,29.92,SE,136,0.0,0.0,90,0.00,,SKC,0.00,VWS V13.01,2013-06-30 10:57:00,
2013-06-30 07:02:00,66.9,63.9,29.92,SE,136,0.0,0.0,90,0.00,,SKC,0.00,VWS V13.01,2013-06-30 11:02:00,
2013-06-30 07:07:00,66.9,63.9,29.93,SE,136,0.0,0.0,90,0.00,,SKC,0.00,VWS V13.01,2013-06-30 11:07:00,
2013-06-30 07:12:00,67.1,64.1,29.93,SE,136,0.0,0.0,90,0.00,,SKC,0.00,VWS V13.01,2013-06-30 11:12:00,
2013-06-30 07:17:00,67.1,64.1,29.93,SE,136,0.0,0.0,90,0.00,,SKC,0.00,VWS V13.01,2013-06-30 11:17:00,
2013-06-30 07:22:00,67.1,64.1,29.92,SE,136,0.0,0.0,90,0.00,,SKC,0.00,VWS V13.01,2013-06-30 11:22:00,
2013-06-30 07:27:00,67.2,64.2,29.93,SE,136,0.0,0.0,90,0.00,,SKC,0.00,VWS V13.01,2013-06-30 11:27:00,
2013-06-30 07:32:00,67.2,64.2,29.93,SE,136,0.0,0.0,90,0.00,,SKC,0.00,VWS V13.01,2013-06-30 11:32:00,
2013-06-30 07:37:00,67.6,64.6,29.93,SE,136,0.0,0.0,90,0.00,,SKC,0.00,VWS V13.01,2013-06-30 11:37:00,
2013-06-30 07:42:00,67.8,64.8,29.93,SE,136,0.0,0.0,90,0.00,,SKC,0.00,VWS V13.01,2013-06-30 11:42:00,
2013-06-30 07:47:00,68.1,65.1,29.93,SE,136,0.0,0.0,90,0.00,,SKC,0.00,VWS V13.01,2013-06-30 11:47:00,
2013-06-30 07:52:00,68.3,65.3,29.93,SE,136,0.0,0.0,90,0.00,,SKC,0.00,VWS V13.01,2013-06-30 11:52:00,
2013-06-30 07:57:00,69.0,65.6,29.93,SE,136,0.0,0.0,89,0.00,,SKC,0.00,VWS V13.01,2013-06-30 11:57:00,
2013-06-30 08:02:00,69.6,66.2,29.94,SE,136,0.0,0.0,89,0.00,,SKC,0.00,VWS V13.01,2013-06-30 12:02:00,
2013-06-30 08:07:00,70.1,66.7,29.94,SE,136,0.0,0.0,89,0.00,,SKC,0.00,VWS V13.01,2013-06-30 12:07:00,
2013-06-30 08:12:00,70.7,67.3,29.94,NE,46,0.0,0.0,89,0.00,,SKC,0.00,VWS V13.01,2013-06-30 12:12:00,
2013-06-30 08:17:00,71.2,67.5,29.94,NE,46,0.0,0.0,88,0.00,,SKC,0.00,VWS V13.01,2013-06-30 12:17:00,
2013-06-30 08:22:00,71.6,67.9,29.94,ESE,114,0.0,0.0,88,0.00,,SKC,0.00,VWS V13.01,2013-06-30 12:22:00,
2013-06-30 08:27:00,72.5,68.4,29.95,SSE,158,0.0,0.0,87,0.00,,SKC,0.00,VWS V13.01,2013-06-30 12:27:00,
2013-06-30 08:32:00,73.0,68.6,29.95,ENE,68,0.0,0.0,86,0.00,,SKC,0.00,VWS V13.01,2013-06-30 12:32:00,
2013-06-30 08:37:00,73.2,68.8,29.95,West,271,0.0,0.0,86,0.00,,SKC,0.00,VWS V13.01,2013-06-30 12:37:00,
2013-06-30 08:42:00,73.5,68.7,29.95,SW,226,0.0,0.0,85,0.00,,SKC,0.00,VWS V13.01,2013-06-30 12:42:00,
2013-06-30 08:47:00,73.9,69.1,29.95,South,181,0.0,0.0,85,0.00,,SKC,0.00,VWS V13.01,2013-06-30 12:47:00,
2013-06-30 08:52:00,74.4,69.6,29.95,East,91,0.0,0.0,85,0.00,,SKC,0.00,VWS V13.01,2013-06-30 12:52:00,
2013-06-30 08:57:00,75.0,69.5,29.95,North,1,2.0,2.0,83,0.00,,SKC,0.00,VWS V13.01,2013-06-30 12:57:00,
2013-06-30 09:02:00,75.3,69.8,29.96,South,181,0.0,0.0,83,0.00,,SKC,0.00,VWS V13.01,2013-06-30 13:02:00,
2013-06-30 09:07:00,75.9,70.0,29.96,SSW,204,0.0,0.0,82,0.00,,SKC,0.00,VWS V13.01,2013-06-30 13:07:00,
2013-06-30 09:12:00,77.3,71.0,29.96,SW,226,0.0,0.0,81,0.00,,SKC,0.00,VWS V13.01,2013-06-30 13:12:00,
2013-06-30 09:17:00,77.5,70.5,29.96,SSE,158,0.6,0.6,79,0.00,,SKC,0.00,VWS V13.01,2013-06-30 13:17:00,
2013-06-30 09:22:00,77.5,70.5,29.96,SSE,158,0.6,0.6,79,0.00,,SKC,0.00,VWS V13.01,2013-06-30 13:22:00,
2013-06-30 09:56:00,77.5,70.5,29.96,SSE,158,0.6,0.6,79,0.00,,SKC,0.00,VWS V13.01,2013-06-30 13:56:00,
2013-06-30 10:01:00,78.9,69.5,29.96,ESE,114,0.0,0.0,73,0.00,,SKC,0.00,VWS V13.01,2013-06-30 14:01:00,
2013-06-30 10:06:00,78.6,69.2,29.96,NNW,338,0.0,0.0,73,0.00,,SKC,0.00,VWS V13.01,2013-06-30 14:06:00,
2013-06-30 10:11:00,78.6,69.2,29.96,NE,46,0.0,0.0,73,0.00,,SKC,0.00,VWS V13.01,2013-06-30 14:11:00,
2013-06-30 10:16:00,78.6,68.8,29.96,NW,316,0.0,0.0,72,0.00,,SKC,0.00,VWS V13.01,2013-06-30 14:16:00,
2013-06-30 10:21:00,78.4,68.6,29.96,SSE,158,0.0,0.0,72,0.00,,SKC,0.00,VWS V13.01,2013-06-30 14:21:00,
2013-06-30 10:26:00,78.4,69.0,29.96,SSE,158,0.0,0.0,73,0.00,,SKC,0.00,VWS V13.01,2013-06-30 14:26:00,
2013-06-30 10:31:00,78.4,68.6,29.96,SE,136,0.0,0.0,72,0.00,,SKC,0.00,VWS V13.01,2013-06-30 14:31:00,
2013-06-30 10:36:00,78.4,68.6,29.97,SE,136,0.0,0.0,72,0.00,,SKC,0.00,VWS V13.01,2013-06-30 14:36:00,
2013-06-30 10:41:00,78.6,68.8,29.96,ENE,68,0.0,0.0,72,0.00,,SKC,0.00,VWS V13.01,2013-06-30 14:41:00,
2013-06-30 10:47:00,78.6,68.4,29.96,NNW,338,0.0,0.0,71,0.00,,SKC,0.00,VWS V13.01,2013-06-30 14:47:00,
2013-06-30 10:52:00,78.6,68.4,29.96,NNW,338,0.2,0.2,71,0.00,,SKC,0.00,VWS V13.01,2013-06-30 14:52:00,
2013-06-30 10:57:00,78.9,68.7,29.96,NNE,24,0.0,0.0,71,0.00,,SKC,0.00,VWS V13.01,2013-06-30 14:57:00,
2013-06-30 11:02:00,78.9,68.3,29.96,North,1,0.0,0.0,70,0.00,,SKC,0.00,VWS V13.01,2013-06-30 15:02:00,
2013-06-30 11:07:00,79.1,68.5,29.96,South,181,0.6,0.6,70,0.00,,SKC,0.00,VWS V13.01,2013-06-30 15:07:00,
2013-06-30 11:12:00,79.5,68.4,29.96,ESE,114,0.2,0.2,69,0.00,,SKC,0.00,VWS V13.01,2013-06-30 15:12:00,
2013-06-30 11:17:00,80.2,69.1,29.96,South,181,0.0,0.0,69,0.00,,SKC,0.00,VWS V13.01,2013-06-30 15:17:00,
2013-06-30 11:22:00,80.6,69.1,29.96,SSW,204,0.0,0.0,68,0.00,,SKC,0.00,VWS V13.01,2013-06-30 15:22:00,
2013-06-30 11:27:00,81.1,69.6,29.96,ESE,114,0.0,0.0,68,0.00,,SKC,0.00,VWS V13.01,2013-06-30 15:27:00,
2013-06-30 11:32:00,81.1,68.7,29.96,East,91,0.0,0.0,66,0.00,,SKC,0.00,VWS V13.01,2013-06-30 15:32:00,
2013-06-30 11:37:00,81.1,69.1,29.96,East,91,0.4,0.4,67,0.00,,SKC,0.00,VWS V13.01,2013-06-30 15:37:00,
2013-06-30 11:42:00,81.1,69.1,29.96,SSW,204,0.0,0.0,67,0.00,,SKC,0.00,VWS V13.01,2013-06-30 15:42:00,
2013-06-30 11:47:00,80.9,68.5,29.96,NNW,338,0.6,0.6,66,0.00,,SKC,0.00,VWS V13.01,2013-06-30 15:47:00,
2013-06-30 11:52:00,80.4,67.6,29.96,NW,316,0.0,0.0,65,0.00,,SKC,0.00,VWS V13.01,2013-06-30 15:52:00,
2013-06-30 11:57:00,80.2,67.8,29.96,West,271,0.0,0.0,66,0.00,,SKC,0.00,VWS V13.01,2013-06-30 15:57:00,
2013-06-30 12:02:00,80.2,68.3,29.96,South,181,0.0,0.0,67,0.00,,SKC,0.00,VWS V13.01,2013-06-30 16:02:00,
2013-06-30 12:07:00,80.4,68.4,29.96,SSE,158,0.2,0.2,67,0.00,,SKC,0.00,VWS V13.01,2013-06-30 16:07:00,
2013-06-30 12:12:00,80.4,68.4,29.96,SSW,204,0.0,0.0,67,0.00,,SKC,0.00,VWS V13.01,2013-06-30 16:12:00,
2013-06-30 12:17:00,80.4,67.6,29.96,SSW,204,0.0,0.0,65,0.00,,SKC,0.00,VWS V13.01,2013-06-30 16:17:00,
2013-06-30 12:22:00,80.2,67.8,29.96,South,181,0.0,0.0,66,0.00,,SKC,0.00,VWS V13.01,2013-06-30 16:22:00,
2013-06-30 12:27:00,80.4,67.6,29.95,NW,316,0.6,0.6,65,0.00,,SKC,0.00,VWS V13.01,2013-06-30 16:27:00,
2013-06-30 12:32:00,80.7,67.4,29.95,ENE,68,0.0,0.0,64,0.00,,SKC,0.00,VWS V13.01,2013-06-30 16:32:00,
2013-06-30 12:37:00,80.9,67.6,29.95,NNW,338,0.0,0.0,64,0.00,,SKC,0.00,VWS V13.01,2013-06-30 16:37:00,
2013-06-30 12:42:00,81.6,68.2,29.95,WNW,294,0.0,0.0,64,0.00,,SKC,0.00,VWS V13.01,2013-06-30 16:42:00,
2013-06-30 12:47:00,82.2,68.8,29.96,SSE,158,2.2,2.2,64,0.00,,SKC,0.00,VWS V13.01,2013-06-30 16:47:00,
2013-06-30 12:52:00,82.5,67.7,29.96,NNW,338,0.6,0.6,61,0.00,,SKC,0.00,VWS V13.01,2013-06-30 16:52:00,
2013-06-30 12:57:00,83.1,68.7,100.00,NE,46,0.0,0.0,62,0.00,,SKC,0.00,VWS V13.01,2013-06-30 16:57:00,
2013-06-30 13:02:00,83.8,68.9,29.96,ESE,114,0.0,0.0,61,0.00,,SKC,0.00,VWS V13.01,2013-06-30 17:02:00,
2013-06-30 13:07:00,84.0,69.1,29.96,North,1,0.0,0.0,61,0.00,,SKC,0.00,VWS V13.01,2013-06-30 17:07:00,
2013-06-30 13:12:00,84.2,68.3,29.95,ESE,114,0.0,0.0,59,0.00,,SKC,0.00,VWS V13.01,2013-06-30 17:12:00,
2013-06-30 13:17:00,84.3,68.4,29.96,WSW,248,0.0,0.0,59,0.00,,SKC,0.00,VWS V13.01,2013-06-30 17:17:00,
2013-06-30 13:22:00,84.3,68.9,29.96,NNE,24,0.4,0.4,60,0.00,,SKC,0.00,VWS V13.01,2013-06-30 17:22:00,
2013-06-30 13:27:00,84.5,69.1,29.95,SSE,158,1.5,1.5,60,0.00,,SKC,0.00,VWS V13.01,2013-06-30 17:27:00,
2013-06-30 13:32:00,84.7,68.8,29.96,South,181,2.2,2.2,59,0.00,,SKC,0.00,VWS V13.01,2013-06-30 17:32:00,
2013-06-30 13:37:00,84.9,69.0,29.96,SSE,158,0.0,0.0,59,0.00,,SKC,0.00,VWS V13.01,2013-06-30 17:37:00,
2013-06-30 13:42:00,84.9,69.0,29.95,WNW,294,0.0,0.0,59,0.00,,SKC,0.00,VWS V13.01,2013-06-30 17:42:00,
2013-06-30 13:47:00,85.1,69.2,29.95,SSW,204,0.0,0.0,59,0.00,,SKC,0.00,VWS V13.01,2013-06-30 17:47:00,
2013-06-30 13:52:00,85.2,68.8,29.95,South,181,3.3,3.3,58,0.00,,SKC,0.00,VWS V13.01,2013-06-30 17:52:00,
2013-06-30 13:57:00,85.2,68.3,29.95,WSW,248,0.0,0.0,57,0.00,,SKC,0.00,VWS V13.01,2013-06-30 17:57:00,
2013-06-30 14:02:00,84.9,69.0,29.95,SSW,204,0.0,0.0,59,0.00,,SKC,0.00,VWS V13.01,2013-06-30 18:02:00,
2013-06-30 14:07:00,84.9,69.0,29.95,NNW,338,0.0,0.0,59,0.00,,SKC,0.00,VWS V13.01,2013-06-30 18:07:00,
2013-06-30 14:12:00,84.7,68.3,29.95,NW,316,0.0,0.0,58,0.00,,SKC,0.00,VWS V13.01,2013-06-30 18:12:00,
2013-06-30 14:17:00,84.7,68.8,29.95,SSE,158,0.0,0.0,59,0.00,,SKC,0.00,VWS V13.01,2013-06-30 18:17:00,
2013-06-30 14:22:00,84.7,68.8,29.95,SSE,158,0.4,0.4,59,0.00,,SKC,0.00,VWS V13.01,2013-06-30 18:22:00,
2013-06-30 14:27:00,84.9,68.5,29.95,North,1,0.0,0.0,58,0.00,,SKC,0.00,VWS V13.01,2013-06-30 18:27:00,
2013-06-30 14:32:00,84.9,68.5,29.95,West,271,0.2,0.2,58,0.00,,SKC,0.00,VWS V13.01,2013-06-30 18:32:00,
2013-06-30 14:37:00,84.5,68.6,29.95,NNW,338,0.6,0.6,59,0.00,,SKC,0.00,VWS V13.01,2013-06-30 18:37:00,
2013-06-30 14:42:00,84.0,68.6,29.95,NNW,338,2.2,2.2,60,0.00,,SKC,0.00,VWS V13.01,2013-06-30 18:42:00,
2013-06-30 14:47:00,83.3,68.5,29.95,North,1,0.4,0.4,61,0.00,,SKC,0.00,VWS V13.01,2013-06-30 18:47:00,
2013-06-30 14:52:00,82.7,68.4,29.95,NNW,338,0.0,1.3,62,0.00,,SKC,0.00,VWS V13.01,2013-06-30 18:52:00,
2013-06-30 14:57:00,82.2,67.4,29.95,NNW,338,0.0,0.0,61,0.00,,SKC,0.00,VWS V13.01,2013-06-30 18:57:00,
2013-06-30 15:02:00,82.5,68.2,29.95,North,1,2.6,2.6,62,0.00,,SKC,0.00,VWS V13.01,2013-06-30 19:02:00,
2013-06-30 15:07:00,82.5,67.7,29.95,North,1,0.2,0.2,61,0.00,,SKC,0.00,VWS V13.01,2013-06-30 19:07:00,
2013-06-30 15:12:00,82.5,68.2,29.95,NNE,24,0.0,0.0,62,0.00,,SKC,0.00,VWS V13.01,2013-06-30 19:12:00,
2013-06-30 15:17:00,82.7,68.4,29.95,NNW,338,0.4,0.4,62,0.00,,SKC,0.00,VWS V13.01,2013-06-30 19:17:00,
2013-06-30 15:22:00,82.0,66.8,29.95,NNE,24,3.3,3.3,60,0.00,,SKC,0.00,VWS V13.01,2013-06-30 19:22:00,
2013-06-30 15:27:00,81.3,67.1,29.95,NNW,338,0.8,0.8,62,0.00,,SKC,0.00,VWS V13.01,2013-06-30 19:27:00,
2013-06-30 15:32:00,80.9,67.1,29.95,NW,316,1.7,1.7,63,0.00,,SKC,0.00,VWS V13.01,2013-06-30 19:32:00,
2013-06-30 15:37:00,80.7,67.4,29.95,NNW,338,0.0,0.0,64,0.00,,SKC,0.00,VWS V13.01,2013-06-30 19:37:00,
2013-06-30 15:42:00,80.7,66.9,29.95,NNE,24,0.0,0.0,63,0.00,,SKC,0.00,VWS V13.01,2013-06-30 19:42:00,
2013-06-30 15:47:00,80.4,67.1,29.95,NNE,24,3.3,3.3,64,0.00,,SKC,0.00,VWS V13.01,2013-06-30 19:47:00,
2013-06-30 15:52:00,80.2,67.4,29.95,North,1,0.0,0.0,65,0.00,,SKC,0.00,VWS V13.01,2013-06-30 19:52:00,
2013-06-30 15:57:00,80.2,67.4,29.94,West,271,0.6,0.6,65,0.00,,SKC,0.00,VWS V13.01,2013-06-30 19:57:00,
2013-06-30 16:02:00,80.2,67.4,29.95,NW,316,1.5,1.5,65,0.00,,SKC,0.00,VWS V13.01,2013-06-30 20:02:00,
2013-06-30 16:07:00,80.2,67.4,29.95,North,1,0.0,0.0,65,0.00,,SKC,0.00,VWS V13.01,2013-06-30 20:07:00,
2013-06-30 16:12:00,80.2,66.9,29.95,NW,316,2.0,2.0,64,0.00,,SKC,0.00,VWS V13.01,2013-06-30 20:12:00,
2013-06-30 16:17:00,80.2,66.9,29.95,NW,316,0.4,0.4,64,0.00,,SKC,0.00,VWS V13.01,2013-06-30 20:17:00,
2013-06-30 16:22:00,80.2,66.9,29.95,NNW,338,1.5,1.5,64,0.00,,SKC,0.00,VWS V13.01,2013-06-30 20:22:00,
2013-06-30 16:28:00,80.0,66.7,29.95,North,1,3.1,3.1,64,0.00,,SKC,0.00,VWS V13.01,2013-06-30 20:28:00,
2013-06-30 16:33:00,79.8,66.6,29.95,NW,316,2.2,2.2,64,0.00,,SKC,0.00,VWS V13.01,2013-06-30 20:33:00,
2013-06-30 16:38:00,79.8,67.0,29.96,North,1,0.0,0.0,65,0.00,,SKC,0.00,VWS V13.01,2013-06-30 20:38:00,
2013-06-30 16:43:00,79.7,66.9,29.95,North,1,0.0,0.0,65,0.00,,SKC,0.00,VWS V13.01,2013-06-30 20:43:00,
2013-06-30 16:48:00,79.7,66.9,29.96,NNW,338,0.4,0.4,65,0.00,,SKC,0.00,VWS V13.01,2013-06-30 20:48:00,
2013-06-30 16:53:00,79.8,66.6,29.96,NNW,338,1.1,1.1,64,0.00,,SKC,0.00,VWS V13.01,2013-06-30 20:53:00,
2013-06-30 16:58:00,79.7,66.5,29.95,WNW,294,2.4,2.4,64,0.00,,SKC,0.00,VWS V13.01,2013-06-30 20:58:00,
2013-06-30 17:03:00,79.3,66.1,29.96,NNW,338,0.0,0.0,64,0.00,,SKC,0.00,VWS V13.01,2013-06-30 21:03:00,
2013-06-30 17:08:00,79.1,66.3,29.96,NE,46,0.0,0.0,65,0.00,,SKC,0.00,VWS V13.01,2013-06-30 21:08:00,
2013-06-30 17:13:00,79.1,66.3,29.96,ENE,68,0.0,0.0,65,0.00,,SKC,0.00,VWS V13.01,2013-06-30 21:13:00,
2013-06-30 17:18:00,79.1,66.3,29.96,NNW,338,0.0,0.0,65,0.00,,SKC,0.00,VWS V13.01,2013-06-30 21:18:00,
2013-06-30 17:20:00,79.3,66.5,29.96,NNW,338,0.0,0.0,65,0.00,,SKC,0.00,VWS V13.01,2013-06-30 21:20:00,
2013-06-30 17:23:00,79.3,66.5,29.96,NNW,338,0.0,0.0,65,0.00,,SKC,0.00,VWS V13.01,2013-06-30 21:23:00,
2013-06-30 17:28:00,79.3,66.5,29.96,NNW,338,0.0,0.0,65,0.00,,SKC,0.00,VWS V13.01,2013-06-30 21:28:00,
2013-06-30 18:18:00,79.3,66.5,29.96,NNW,338,0.0,0.0,65,0.00,,SKC,0.00,VWS V13.01,2013-06-30 22:18:00,
2013-06-30 18:23:00,79.3,66.5,29.96,NNW,338,0.0,0.0,65,0.00,,SKC,0.00,VWS V13.01,2013-06-30 22:23:00,
2013-06-30 19:47:00,79.3,66.5,29.96,NNW,338,0.0,0.0,65,0.00,,SKC,0.00,VWS V13.01,2013-06-30 23:47:00,
2013-06-30 19:52:00,74.8,64.8,29.99,NNE,24,0.0,0.0,71,0.00,,SKC,0.00,VWS V13.01,2013-06-30 23:52:00,
2013-06-30 19:57:00,74.4,64.4,30.01,NNW,338,0.0,0.0,71,0.00,,SKC,0.00,VWS V13.01,2013-06-30 23:57:00,
2013-06-30 20:02:00,74.4,64.4,30.01,NNW,338,0.0,0.0,71,0.00,,SKC,0.00,VWS V13.01,2013-07-01 00:02:00,
2013-06-30 20:07:00,74.3,64.7,30.00,ENE,68,0.0,0.0,72,0.00,,SKC,0.00,VWS V13.01,2013-07-01 00:07:00,
2013-06-30 20:12:00,74.1,64.9,30.00,NE,46,0.0,0.0,73,0.00,,SKC,0.00,VWS V13.01,2013-07-01 00:12:00,
2013-06-30 20:17:00,73.9,65.1,30.00,North,1,0.0,0.0,74,0.00,,SKC,0.00,VWS V13.01,2013-07-01 00:17:00,
2013-06-30 20:22:00,73.5,64.7,30.01,NNW,338,0.0,0.0,74,0.00,,SKC,0.00,VWS V13.01,2013-07-01 00:22:00,
2013-06-30 20:27:00,73.2,64.8,30.01,NNW,338,0.0,0.0,75,0.00,,SKC,0.00,VWS V13.01,2013-07-01 00:27:00,
2013-06-30 20:32:00,73.0,65.0,30.02,SSW,204,0.0,0.0,76,0.00,,SKC,0.00,VWS V13.01,2013-07-01 00:32:00,
2013-06-30 20:37:00,72.8,64.8,30.03,SSW,204,0.0,0.0,76,0.00,,SKC,0.00,VWS V13.01,2013-07-01 00:37:00,
2013-06-30 20:42:00,72.6,65.0,30.03,SSE,158,1.5,1.5,77,0.00,,SKC,0.00,VWS V13.01,2013-07-01 00:42:00,
2013-06-30 20:47:00,72.5,64.9,30.03,SE,136,0.0,0.0,77,0.00,,SKC,0.00,VWS V13.01,2013-07-01 00:47:00,
2013-06-30 20:52:00,72.3,64.7,30.04,ENE,68,0.0,0.0,77,0.00,,SKC,0.00,VWS V13.01,2013-07-01 00:52:00,
2013-06-30 20:57:00,71.9,65.0,30.04,ESE,114,0.0,0.0,79,0.04,,SKC,0.04,VWS V13.01,2013-07-01 00:57:00,
2013-06-30 21:02:00,71.7,64.8,30.05,NE,46,0.0,0.0,79,0.04,,SKC,0.04,VWS V13.01,2013-07-01 01:02:00,
2013-06-30 21:07:00,71.2,64.7,30.05,NNE,24,0.0,0.0,80,0.06,,SKC,0.06,VWS V13.01,2013-07-01 01:07:00,
2013-06-30 21:12:00,70.7,64.6,30.05,WSW,248,0.0,0.0,81,0.14,,SKC,0.14,VWS V13.01,2013-07-01 01:12:00,
2013-06-30 21:17:00,70.3,64.2,30.06,SSW,204,0.0,0.0,81,0.16,,SKC,0.16,VWS V13.01,2013-07-01 01:17:00,
2013-06-30 21:22:00,69.9,64.2,30.05,WSW,248,0.0,0.0,82,0.28,,SKC,0.28,VWS V13.01,2013-07-01 01:22:00,
2013-06-30 21:27:00,69.6,64.2,30.05,WNW,294,0.0,0.0,83,0.41,,SKC,0.41,VWS V13.01,2013-07-01 01:27:00,
2013-06-30 21:32:00,69.2,64.2,30.05,NW,316,0.0,0.0,84,0.44,,SKC,0.45,VWS V13.01,2013-07-01 01:32:00,
2013-06-30 21:37:00,68.5,63.8,30.05,NE,46,0.0,0.0,85,0.51,,SKC,0.51,VWS V13.01,2013-07-01 01:37:00,
2013-06-30 21:42:00,68.1,63.4,30.05,South,181,0.0,0.0,85,0.51,,SKC,0.51,VWS V13.01,2013-07-01 01:42:00,
2013-06-30 21:47:00,68.0,63.3,30.06,ESE,114,0.0,0.0,85,0.53,,SKC,0.53,VWS V13.01,2013-07-01 01:47:00,
2013-06-30 21:52:00,67.8,63.5,30.06,ESE,114,0.0,0.0,86,0.51,,SKC,0.53,VWS V13.01,2013-07-01 01:52:00,
2013-06-30 21:57:00,67.8,63.5,30.06,ESE,114,0.0,0.0,86,0.49,,SKC,0.53,VWS V13.01,2013-07-01 01:57:00,
2013-06-30 22:02:00,67.8,63.5,30.06,ESE,114,0.0,0.0,86,0.47,,SKC,0.53,VWS V13.01,2013-07-01 02:02:00,
2013-06-30 22:07:00,67.8,63.5,30.06,ESE,114,0.0,0.0,86,0.44,,SKC,0.53,VWS V13.01,2013-07-01 02:07:00,
2013-06-30 22:12:00,67.8,63.8,30.06,ENE,68,0.0,0.0,87,0.37,,SKC,0.53,VWS V13.01,2013-07-01 02:12:00,
2013-06-30 22:17:00,67.8,63.8,30.06,ENE,68,0.0,0.0,87,0.32,,SKC,0.53,VWS V13.01,2013-07-01 02:17:00,
2013-06-30 22:22:00,67.8,63.8,30.06,ENE,68,0.0,0.0,87,0.24,,SKC,0.53,VWS V13.01,2013-07-01 02:22:00,
2013-06-30 22:27:00,67.6,63.6,30.07,ENE,68,0.0,0.0,87,0.12,,SKC,0.53,VWS V13.01,2013-07-01 02:27:00,
2013-06-30 22:32:00,67.6,63.6,30.06,NNE,24,0.0,0.0,87,0.06,,SKC,0.53,VWS V13.01,2013-07-01 02:32:00,
2013-06-30 22:37:00,67.6,63.6,30.06,ENE,68,0.0,0.0,87,0.02,,SKC,0.53,VWS V13.01,2013-07-01 02:37:00,
2013-06-30 22:42:00,67.4,63.7,30.06,NE,46,0.0,0.0,88,0.02,,SKC,0.53,VWS V13.01,2013-07-01 02:42:00,
2013-06-30 22:47:00,67.6,63.9,30.06,North,1,0.0,0.0,88,0.00,,SKC,0.53,VWS V13.01,2013-07-01 02:47:00,
2013-06-30 22:52:00,67.4,63.7,30.06,North,1,0.0,0.0,88,0.00,,SKC,0.53,VWS V13.01,2013-07-01 02:52:00,
2013-06-30 22:57:00,67.4,63.7,30.06,North,1,0.0,0.0,88,0.00,,SKC,0.53,VWS V13.01,2013-07-01 02:57:00,
2013-06-30 23:02:00,67.2,63.5,30.06,North,1,0.0,0.0,88,0.00,,SKC,0.53,VWS V13.01,2013-07-01 03:02:00,
2013-06-30 23:07:00,67.2,63.5,30.06,North,1,0.0,0.0,88,0.00,,SKC,0.53,VWS V13.01,2013-07-01 03:07:00,
2013-06-30 23:12:00,67.2,63.5,30.07,North,1,0.0,0.0,88,0.00,,SKC,0.53,VWS V13.01,2013-07-01 03:12:00,
2013-06-30 23:17:00,67.2,63.5,30.06,North,1,0.0,0.0,88,0.00,,SKC,0.53,VWS V13.01,2013-07-01 03:17:00,
2013-06-30 23:22:00,67.2,63.5,30.06,North,1,0.0,0.0,88,0.00,,SKC,0.53,VWS V13.01,2013-07-01 03:22:00,
2013-06-30 23:27:00,67.2,63.5,30.05,North,1,0.0,0.0,88,0.00,,SKC,0.53,VWS V13.01,2013-07-01 03:27:00,
2013-06-30 23:32:00,67.1,63.4,30.06,NNW,338,0.0,0.0,88,0.00,,SKC,0.53,VWS V13.01,2013-07-01 03:32:00,
2013-06-30 23:37:00,67.1,63.4,30.06,NNW,338,0.0,0.0,88,0.00,,SKC,0.53,VWS V13.01,2013-07-01 03:37:00,
2013-06-30 23:42:00,67.1,63.8,30.07,NNW,338,0.0,0.0,89,0.00,,SKC,0.53,VWS V13.01,2013-07-01 03:42:00,
2013-06-30 23:47:00,66.9,63.6,30.06,NNW,338,0.0,0.0,89,0.00,,SKC,0.53,VWS V13.01,2013-07-01 03:47:00,
2013-06-30 23:52:00,66.9,63.6,30.06,NNW,338,0.0,0.0,89,0.00,,SKC,0.53,VWS V13.01,2013-07-01 03:52:00,
2013-06-30 23:57:00,66.9,63.6,30.07,North,1,0.0,0.0,89,0.00,,SKC,0.53,VWS V13.01,2013-07-01 03:57:00,